sensor_id;sensor_type;location;lat;lon;timestamp;P1;durP1;ratioP1;P2;durP2;ratioP2
65831;SDS011;52593;42.648;23.332;2023-01-29T00:02:19;13.60;;;4.57;;
65831;SDS011;52593;42.648;23.332;2023-01-29T00:04:45;9.43;;;3.38;;
65831;SDS011;52593;42.648;23.332;2023-01-29T00:07:10;10.67;;;3.80;;
65831;SDS011;52593;42.648;23.332;2023-01-29T00:09:36;10.80;;;4.70;;
65831;SDS011;52593;42.648;23.332;2023-01-29T00:12:01;7.77;;;3.27;;
65831;SDS011;52593;42.648;23.332;2023-01-29T00:14:27;11.45;;;4.70;;
65831;SDS011;52593;42.648;23.332;2023-01-29T00:16:52;12.33;;;4.43;;
65831;SDS011;52593;42.648;23.332;2023-01-29T00:19:17;11.70;;;4.33;;
65831;SDS011;52593;42.648;23.332;2023-01-29T00:21:43;7.95;;;2.92;;
65831;SDS011;52593;42.648;23.332;2023-01-29T00:24:09;7.10;;;2.40;;
65831;SDS011;52593;42.648;23.332;2023-01-29T00:26:35;10.55;;;4.25;;
65831;SDS011;52593;42.648;23.332;2023-01-29T00:29:02;10.82;;;4.00;;
65831;SDS011;52593;42.648;23.332;2023-01-29T00:31:28;6.73;;;2.27;;
65831;SDS011;52593;42.648;23.332;2023-01-29T00:33:54;12.75;;;4.55;;
65831;SDS011;52593;42.648;23.332;2023-01-29T00:36:20;12.07;;;4.10;;
65831;SDS011;52593;42.648;23.332;2023-01-29T00:38:46;9.32;;;3.90;;
65831;SDS011;52593;42.648;23.332;2023-01-29T00:41:18;9.93;;;3.77;;
65831;SDS011;52593;42.648;23.332;2023-01-29T00:44:04;8.63;;;3.13;;
65831;SDS011;52593;42.648;23.332;2023-01-29T00:46:49;9.18;;;3.58;;
65831;SDS011;52593;42.648;23.332;2023-01-29T00:49:14;12.63;;;4.67;;
65831;SDS011;52593;42.648;23.332;2023-01-29T00:51:39;11.37;;;4.10;;
65831;SDS011;52593;42.648;23.332;2023-01-29T00:54:05;12.43;;;4.17;;
65831;SDS011;52593;42.648;23.332;2023-01-29T00:56:31;9.38;;;3.20;;
65831;SDS011;52593;42.648;23.332;2023-01-29T00:58:59;12.82;;;5.30;;
65831;SDS011;52593;42.648;23.332;2023-01-29T01:01:25;11.33;;;4.70;;
65831;SDS011;52593;42.648;23.332;2023-01-29T01:04:27;10.68;;;3.45;;
65831;SDS011;52593;42.648;23.332;2023-01-29T01:06:53;8.37;;;3.57;;
65831;SDS011;52593;42.648;23.332;2023-01-29T01:09:18;13.83;;;4.23;;
65831;SDS011;52593;42.648;23.332;2023-01-29T01:12:02;11.40;;;5.00;;
65831;SDS011;52593;42.648;23.332;2023-01-29T01:14:28;9.30;;;3.22;;
65831;SDS011;52593;42.648;23.332;2023-01-29T01:17:11;9.57;;;2.97;;
65831;SDS011;52593;42.648;23.332;2023-01-29T01:19:37;7.95;;;3.60;;
65831;SDS011;52593;42.648;23.332;2023-01-29T01:22:02;7.43;;;2.97;;
65831;SDS011;52593;42.648;23.332;2023-01-29T01:24:29;9.90;;;3.50;;
65831;SDS011;52593;42.648;23.332;2023-01-29T01:26:54;8.20;;;4.00;;
65831;SDS011;52593;42.648;23.332;2023-01-29T01:29:20;9.27;;;3.90;;
65831;SDS011;52593;42.648;23.332;2023-01-29T01:31:45;15.43;;;5.00;;
65831;SDS011;52593;42.648;23.332;2023-01-29T01:34:10;12.07;;;4.80;;
65831;SDS011;52593;42.648;23.332;2023-01-29T01:36:36;13.13;;;3.97;;
65831;SDS011;52593;42.648;23.332;2023-01-29T01:39:02;12.43;;;4.40;;
65831;SDS011;52593;42.648;23.332;2023-01-29T01:41:28;10.40;;;4.55;;
65831;SDS011;52593;42.648;23.332;2023-01-29T01:43:54;9.40;;;3.77;;
65831;SDS011;52593;42.648;23.332;2023-01-29T01:46:28;8.57;;;3.33;;
65831;SDS011;52593;42.648;23.332;2023-01-29T01:49:02;12.07;;;4.80;;
65831;SDS011;52593;42.648;23.332;2023-01-29T01:51:38;7.57;;;3.35;;
65831;SDS011;52593;42.648;23.332;2023-01-29T01:54:08;11.90;;;4.17;;
65831;SDS011;52593;42.648;23.332;2023-01-29T01:56:38;8.38;;;3.40;;
65831;SDS011;52593;42.648;23.332;2023-01-29T01:59:09;14.05;;;5.63;;
65831;SDS011;52593;42.648;23.332;2023-01-29T02:01:37;12.00;;;4.30;;
65831;SDS011;52593;42.648;23.332;2023-01-29T02:04:07;8.63;;;3.33;;
65831;SDS011;52593;42.648;23.332;2023-01-29T02:06:55;10.37;;;4.03;;
65831;SDS011;52593;42.648;23.332;2023-01-29T02:09:45;10.30;;;4.25;;
65831;SDS011;52593;42.648;23.332;2023-01-29T02:12:16;10.40;;;3.40;;
65831;SDS011;52593;42.648;23.332;2023-01-29T02:14:43;13.23;;;4.70;;
65831;SDS011;52593;42.648;23.332;2023-01-29T02:17:16;9.40;;;3.20;;
65831;SDS011;52593;42.648;23.332;2023-01-29T02:19:49;11.20;;;3.47;;
65831;SDS011;52593;42.648;23.332;2023-01-29T02:22:28;12.25;;;3.95;;
65831;SDS011;52593;42.648;23.332;2023-01-29T02:30:32;10.63;;;3.83;;
65831;SDS011;52593;42.648;23.332;2023-01-29T02:35:48;12.05;;;3.90;;
65831;SDS011;52593;42.648;23.332;2023-01-29T02:38:16;13.07;;;4.45;;
65831;SDS011;52593;42.648;23.332;2023-01-29T02:43:47;10.48;;;4.43;;
65831;SDS011;52593;42.648;23.332;2023-01-29T02:49:12;7.75;;;3.22;;
65831;SDS011;52593;42.648;23.332;2023-01-29T02:54:41;6.97;;;2.92;;
65831;SDS011;52593;42.648;23.332;2023-01-29T03:00:06;8.57;;;3.27;;
65831;SDS011;52593;42.648;23.332;2023-01-29T03:02:42;8.18;;;3.63;;
65831;SDS011;52593;42.648;23.332;2023-01-29T03:05:14;15.98;;;5.80;;
65831;SDS011;52593;42.648;23.332;2023-01-29T03:07:45;9.30;;;3.42;;
65831;SDS011;52593;42.648;23.332;2023-01-29T03:10:17;13.13;;;5.25;;
65831;SDS011;52593;42.648;23.332;2023-01-29T03:13:05;7.73;;;3.37;;
65831;SDS011;52593;42.648;23.332;2023-01-29T03:15:33;11.30;;;4.25;;
65831;SDS011;52593;42.648;23.332;2023-01-29T03:20:32;9.93;;;3.77;;
65831;SDS011;52593;42.648;23.332;2023-01-29T03:23:07;12.93;;;4.13;;
65831;SDS011;52593;42.648;23.332;2023-01-29T03:25:38;5.32;;;2.30;;
65831;SDS011;52593;42.648;23.332;2023-01-29T03:28:24;10.17;;;3.80;;
65831;SDS011;52593;42.648;23.332;2023-01-29T03:31:11;10.05;;;3.92;;
65831;SDS011;52593;42.648;23.332;2023-01-29T03:36:39;6.70;;;2.47;;
65831;SDS011;52593;42.648;23.332;2023-01-29T03:39:13;6.82;;;2.42;;
65831;SDS011;52593;42.648;23.332;2023-01-29T03:41:45;7.13;;;2.20;;
65831;SDS011;52593;42.648;23.332;2023-01-29T03:47:03;7.00;;;2.47;;
65831;SDS011;52593;42.648;23.332;2023-01-29T03:52:20;9.85;;;3.00;;
65831;SDS011;52593;42.648;23.332;2023-01-29T03:55:09;5.80;;;1.63;;
65831;SDS011;52593;42.648;23.332;2023-01-29T04:05:48;7.53;;;2.83;;
65831;SDS011;52593;42.648;23.332;2023-01-29T04:08:26;6.50;;;2.47;;
65831;SDS011;52593;42.648;23.332;2023-01-29T04:10:55;5.47;;;1.95;;
65831;SDS011;52593;42.648;23.332;2023-01-29T04:13:23;9.43;;;3.53;;
65831;SDS011;52593;42.648;23.332;2023-01-29T04:15:50;8.18;;;2.40;;
65831;SDS011;52593;42.648;23.332;2023-01-29T04:18:20;8.05;;;2.83;;
65831;SDS011;52593;42.648;23.332;2023-01-29T04:20:45;5.90;;;2.73;;
65831;SDS011;52593;42.648;23.332;2023-01-29T04:23:21;5.53;;;2.17;;
65831;SDS011;52593;42.648;23.332;2023-01-29T04:26:40;4.67;;;1.77;;
65831;SDS011;52593;42.648;23.332;2023-01-29T04:31:17;4.25;;;1.67;;
65831;SDS011;52593;42.648;23.332;2023-01-29T04:39:11;7.40;;;2.90;;
65831;SDS011;52593;42.648;23.332;2023-01-29T04:41:54;7.07;;;2.28;;
65831;SDS011;52593;42.648;23.332;2023-01-29T04:44:31;6.70;;;2.10;;
65831;SDS011;52593;42.648;23.332;2023-01-29T04:47:05;9.50;;;3.30;;
65831;SDS011;52593;42.648;23.332;2023-01-29T04:50:00;7.20;;;2.78;;
65831;SDS011;52593;42.648;23.332;2023-01-29T04:55:44;8.02;;;2.70;;
65831;SDS011;52593;42.648;23.332;2023-01-29T05:00:43;4.40;;;1.73;;
65831;SDS011;52593;42.648;23.332;2023-01-29T05:03:13;6.22;;;2.33;;
65831;SDS011;52593;42.648;23.332;2023-01-29T05:05:40;4.27;;;1.67;;
65831;SDS011;52593;42.648;23.332;2023-01-29T05:08:09;8.02;;;3.10;;
65831;SDS011;52593;42.648;23.332;2023-01-29T05:10:37;7.15;;;2.63;;
65831;SDS011;52593;42.648;23.332;2023-01-29T05:13:04;6.68;;;2.35;;
65831;SDS011;52593;42.648;23.332;2023-01-29T05:15:34;6.20;;;2.88;;
65831;SDS011;52593;42.648;23.332;2023-01-29T05:18:03;7.20;;;2.70;;
65831;SDS011;52593;42.648;23.332;2023-01-29T05:20:32;8.80;;;3.00;;
65831;SDS011;52593;42.648;23.332;2023-01-29T05:23:00;5.63;;;2.40;;
65831;SDS011;52593;42.648;23.332;2023-01-29T05:25:27;5.87;;;2.33;;
65831;SDS011;52593;42.648;23.332;2023-01-29T05:27:55;7.10;;;2.00;;
65831;SDS011;52593;42.648;23.332;2023-01-29T05:30:31;5.82;;;1.95;;
65831;SDS011;52593;42.648;23.332;2023-01-29T05:32:58;5.78;;;2.45;;
65831;SDS011;52593;42.648;23.332;2023-01-29T05:35:23;11.27;;;3.40;;
65831;SDS011;52593;42.648;23.332;2023-01-29T05:37:49;4.28;;;1.40;;
65831;SDS011;52593;42.648;23.332;2023-01-29T05:40:14;5.97;;;2.20;;
65831;SDS011;52593;42.648;23.332;2023-01-29T05:42:40;4.03;;;2.03;;
65831;SDS011;52593;42.648;23.332;2023-01-29T05:45:06;8.25;;;3.15;;
65831;SDS011;52593;42.648;23.332;2023-01-29T05:47:32;5.50;;;1.90;;
65831;SDS011;52593;42.648;23.332;2023-01-29T05:49:57;6.57;;;2.25;;
65831;SDS011;52593;42.648;23.332;2023-01-29T05:52:23;7.17;;;1.80;;
65831;SDS011;52593;42.648;23.332;2023-01-29T05:54:48;5.70;;;1.77;;
65831;SDS011;52593;42.648;23.332;2023-01-29T05:57:13;7.23;;;2.70;;
65831;SDS011;52593;42.648;23.332;2023-01-29T05:59:39;9.23;;;3.47;;
65831;SDS011;52593;42.648;23.332;2023-01-29T06:02:04;8.18;;;2.67;;
65831;SDS011;52593;42.648;23.332;2023-01-29T06:04:29;7.90;;;2.90;;
65831;SDS011;52593;42.648;23.332;2023-01-29T06:06:55;10.03;;;3.77;;
65831;SDS011;52593;42.648;23.332;2023-01-29T06:09:20;8.60;;;3.10;;
65831;SDS011;52593;42.648;23.332;2023-01-29T06:11:46;4.20;;;1.93;;
65831;SDS011;52593;42.648;23.332;2023-01-29T06:14:11;6.70;;;2.60;;
65831;SDS011;52593;42.648;23.332;2023-01-29T06:16:36;10.40;;;2.65;;
65831;SDS011;52593;42.648;23.332;2023-01-29T06:19:02;9.47;;;2.73;;
65831;SDS011;52593;42.648;23.332;2023-01-29T06:21:27;6.37;;;2.40;;
65831;SDS011;52593;42.648;23.332;2023-01-29T06:23:52;7.10;;;2.87;;
65831;SDS011;52593;42.648;23.332;2023-01-29T06:26:18;11.63;;;3.90;;
65831;SDS011;52593;42.648;23.332;2023-01-29T06:28:43;9.50;;;3.50;;
65831;SDS011;52593;42.648;23.332;2023-01-29T06:31:13;9.20;;;3.03;;
65831;SDS011;52593;42.648;23.332;2023-01-29T06:33:38;7.90;;;3.50;;
65831;SDS011;52593;42.648;23.332;2023-01-29T06:36:03;6.20;;;2.33;;
65831;SDS011;52593;42.648;23.332;2023-01-29T06:38:29;11.70;;;4.60;;
65831;SDS011;52593;42.648;23.332;2023-01-29T06:40:55;6.90;;;2.83;;
65831;SDS011;52593;42.648;23.332;2023-01-29T06:43:21;10.60;;;3.42;;
65831;SDS011;52593;42.648;23.332;2023-01-29T06:45:54;14.23;;;5.50;;
65831;SDS011;52593;42.648;23.332;2023-01-29T06:48:21;7.70;;;3.17;;
65831;SDS011;52593;42.648;23.332;2023-01-29T06:50:47;7.13;;;2.03;;
65831;SDS011;52593;42.648;23.332;2023-01-29T06:53:16;7.78;;;3.42;;
65831;SDS011;52593;42.648;23.332;2023-01-29T06:55:42;11.77;;;4.30;;
65831;SDS011;52593;42.648;23.332;2023-01-29T06:58:09;11.30;;;4.40;;
65831;SDS011;52593;42.648;23.332;2023-01-29T07:00:35;8.70;;;3.17;;
65831;SDS011;52593;42.648;23.332;2023-01-29T07:03:02;5.77;;;1.77;;
65831;SDS011;52593;42.648;23.332;2023-01-29T07:05:28;7.50;;;3.05;;
65831;SDS011;52593;42.648;23.332;2023-01-29T07:07:54;8.05;;;3.38;;
65831;SDS011;52593;42.648;23.332;2023-01-29T07:10:19;8.73;;;3.23;;
65831;SDS011;52593;42.648;23.332;2023-01-29T07:12:45;7.13;;;2.75;;
65831;SDS011;52593;42.648;23.332;2023-01-29T07:15:10;10.37;;;4.13;;
65831;SDS011;52593;42.648;23.332;2023-01-29T07:17:43;9.55;;;4.13;;
65831;SDS011;52593;42.648;23.332;2023-01-29T07:20:09;7.70;;;3.37;;
65831;SDS011;52593;42.648;23.332;2023-01-29T07:22:35;11.52;;;4.88;;
65831;SDS011;52593;42.648;23.332;2023-01-29T07:25:00;10.70;;;4.63;;
65831;SDS011;52593;42.648;23.332;2023-01-29T07:27:25;6.60;;;3.23;;
65831;SDS011;52593;42.648;23.332;2023-01-29T07:29:51;12.00;;;4.50;;
65831;SDS011;52593;42.648;23.332;2023-01-29T07:32:16;9.90;;;4.10;;
65831;SDS011;52593;42.648;23.332;2023-01-29T07:34:42;11.97;;;4.20;;
65831;SDS011;52593;42.648;23.332;2023-01-29T07:37:07;9.50;;;2.93;;
65831;SDS011;52593;42.648;23.332;2023-01-29T07:39:33;13.27;;;5.03;;
65831;SDS011;52593;42.648;23.332;2023-01-29T07:41:58;9.80;;;3.97;;
65831;SDS011;52593;42.648;23.332;2023-01-29T07:44:23;11.57;;;4.87;;
65831;SDS011;52593;42.648;23.332;2023-01-29T07:46:49;13.93;;;5.43;;
65831;SDS011;52593;42.648;23.332;2023-01-29T07:49:15;13.47;;;5.43;;
65831;SDS011;52593;42.648;23.332;2023-01-29T07:51:40;17.48;;;7.28;;
65831;SDS011;52593;42.648;23.332;2023-01-29T07:54:06;10.43;;;4.17;;
65831;SDS011;52593;42.648;23.332;2023-01-29T07:56:31;10.35;;;4.07;;
65831;SDS011;52593;42.648;23.332;2023-01-29T07:58:57;12.63;;;5.20;;
65831;SDS011;52593;42.648;23.332;2023-01-29T08:01:22;8.93;;;3.23;;
65831;SDS011;52593;42.648;23.332;2023-01-29T08:03:48;11.80;;;4.68;;
65831;SDS011;52593;42.648;23.332;2023-01-29T08:06:13;19.50;;;6.80;;
65831;SDS011;52593;42.648;23.332;2023-01-29T08:08:39;12.93;;;5.03;;
65831;SDS011;52593;42.648;23.332;2023-01-29T08:11:04;10.80;;;4.73;;
65831;SDS011;52593;42.648;23.332;2023-01-29T08:13:30;12.53;;;5.43;;
65831;SDS011;52593;42.648;23.332;2023-01-29T08:16:00;13.90;;;5.10;;
65831;SDS011;52593;42.648;23.332;2023-01-29T08:18:26;14.50;;;5.43;;
65831;SDS011;52593;42.648;23.332;2023-01-29T08:20:52;11.67;;;4.50;;
65831;SDS011;52593;42.648;23.332;2023-01-29T08:23:18;12.45;;;5.40;;
65831;SDS011;52593;42.648;23.332;2023-01-29T08:25:43;12.90;;;4.67;;
65831;SDS011;52593;42.648;23.332;2023-01-29T08:28:09;11.80;;;4.65;;
65831;SDS011;52593;42.648;23.332;2023-01-29T08:30:36;7.70;;;3.07;;
65831;SDS011;52593;42.648;23.332;2023-01-29T08:33:02;11.27;;;4.22;;
65831;SDS011;52593;42.648;23.332;2023-01-29T08:35:28;12.80;;;4.95;;
65831;SDS011;52593;42.648;23.332;2023-01-29T08:37:54;9.87;;;4.30;;
65831;SDS011;52593;42.648;23.332;2023-01-29T08:40:23;14.63;;;5.05;;
65831;SDS011;52593;42.648;23.332;2023-01-29T08:42:49;10.82;;;4.00;;
65831;SDS011;52593;42.648;23.332;2023-01-29T08:45:15;9.30;;;3.37;;
65831;SDS011;52593;42.648;23.332;2023-01-29T08:47:44;10.70;;;4.03;;
65831;SDS011;52593;42.648;23.332;2023-01-29T08:50:11;10.20;;;3.45;;
65831;SDS011;52593;42.648;23.332;2023-01-29T08:52:36;11.03;;;4.23;;
65831;SDS011;52593;42.648;23.332;2023-01-29T08:55:01;12.52;;;4.20;;
65831;SDS011;52593;42.648;23.332;2023-01-29T08:57:27;13.13;;;5.07;;
65831;SDS011;52593;42.648;23.332;2023-01-29T08:59:52;10.13;;;4.07;;
65831;SDS011;52593;42.648;23.332;2023-01-29T09:02:18;10.77;;;2.42;;
65831;SDS011;52593;42.648;23.332;2023-01-29T09:04:43;6.90;;;3.20;;
65831;SDS011;52593;42.648;23.332;2023-01-29T09:07:09;10.33;;;4.10;;
65831;SDS011;52593;42.648;23.332;2023-01-29T09:09:34;7.77;;;3.73;;
65831;SDS011;52593;42.648;23.332;2023-01-29T09:11:59;13.10;;;5.30;;
65831;SDS011;52593;42.648;23.332;2023-01-29T09:14:25;15.63;;;6.17;;
65831;SDS011;52593;42.648;23.332;2023-01-29T09:16:51;13.50;;;5.32;;
65831;SDS011;52593;42.648;23.332;2023-01-29T09:19:18;13.45;;;5.65;;
65831;SDS011;52593;42.648;23.332;2023-01-29T09:21:43;14.17;;;4.40;;
65831;SDS011;52593;42.648;23.332;2023-01-29T09:24:08;12.20;;;4.80;;
65831;SDS011;52593;42.648;23.332;2023-01-29T09:26:34;10.60;;;4.75;;
65831;SDS011;52593;42.648;23.332;2023-01-29T09:29:00;10.17;;;4.60;;
65831;SDS011;52593;42.648;23.332;2023-01-29T09:31:25;12.17;;;5.53;;
65831;SDS011;52593;42.648;23.332;2023-01-29T09:33:50;9.00;;;3.57;;
65831;SDS011;52593;42.648;23.332;2023-01-29T09:36:16;9.30;;;3.30;;
65831;SDS011;52593;42.648;23.332;2023-01-29T09:38:41;13.03;;;5.33;;
65831;SDS011;52593;42.648;23.332;2023-01-29T09:43:59;12.52;;;5.15;;
65831;SDS011;52593;42.648;23.332;2023-01-29T09:46:30;13.40;;;5.57;;
65831;SDS011;52593;42.648;23.332;2023-01-29T09:49:06;16.50;;;6.57;;
65831;SDS011;52593;42.648;23.332;2023-01-29T09:51:57;8.93;;;3.22;;
65831;SDS011;52593;42.648;23.332;2023-01-29T09:54:39;11.05;;;3.83;;
65831;SDS011;52593;42.648;23.332;2023-01-29T09:57:16;8.27;;;3.20;;
65831;SDS011;52593;42.648;23.332;2023-01-29T09:59:46;9.57;;;3.83;;
65831;SDS011;52593;42.648;23.332;2023-01-29T10:10:17;11.77;;;3.78;;
65831;SDS011;52593;42.648;23.332;2023-01-29T10:23:36;13.20;;;5.53;;
65831;SDS011;52593;42.648;23.332;2023-01-29T10:26:05;13.73;;;5.35;;
65831;SDS011;52593;42.648;23.332;2023-01-29T10:31:04;10.37;;;4.47;;
65831;SDS011;52593;42.648;23.332;2023-01-29T10:33:37;10.88;;;3.83;;
65831;SDS011;52593;42.648;23.332;2023-01-29T10:36:06;17.70;;;6.17;;
65831;SDS011;52593;42.648;23.332;2023-01-29T10:38:42;14.27;;;4.38;;
65831;SDS011;52593;42.648;23.332;2023-01-29T10:46:28;13.23;;;4.50;;
65831;SDS011;52593;42.648;23.332;2023-01-29T10:48:59;9.43;;;3.78;;
65831;SDS011;52593;42.648;23.332;2023-01-29T10:59:35;10.50;;;4.05;;
65831;SDS011;52593;42.648;23.332;2023-01-29T11:02:14;17.02;;;6.07;;
65831;SDS011;52593;42.648;23.332;2023-01-29T11:04:41;17.95;;;6.47;;
65831;SDS011;52593;42.648;23.332;2023-01-29T11:07:07;16.90;;;6.90;;
65831;SDS011;52593;42.648;23.332;2023-01-29T11:09:35;19.83;;;8.63;;
65831;SDS011;52593;42.648;23.332;2023-01-29T11:12:15;16.42;;;6.63;;
65831;SDS011;52593;42.648;23.332;2023-01-29T11:14:48;15.85;;;6.25;;
65831;SDS011;52593;42.648;23.332;2023-01-29T11:17:20;17.20;;;6.57;;
65831;SDS011;52593;42.648;23.332;2023-01-29T11:19:47;18.00;;;7.25;;
65831;SDS011;52593;42.648;23.332;2023-01-29T11:22:20;15.13;;;5.57;;
65831;SDS011;52593;42.648;23.332;2023-01-29T11:25:07;14.38;;;5.38;;
65831;SDS011;52593;42.648;23.332;2023-01-29T11:33:06;22.42;;;8.40;;
65831;SDS011;52593;42.648;23.332;2023-01-29T11:35:36;18.90;;;7.25;;
65831;SDS011;52593;42.648;23.332;2023-01-29T11:38:06;21.17;;;7.67;;
65831;SDS011;52593;42.648;23.332;2023-01-29T11:40:33;21.25;;;7.95;;
65831;SDS011;52593;42.648;23.332;2023-01-29T11:43:11;16.08;;;4.80;;
65831;SDS011;52593;42.648;23.332;2023-01-29T11:45:41;19.55;;;6.55;;
65831;SDS011;52593;42.648;23.332;2023-01-29T11:48:12;17.40;;;6.93;;
65831;SDS011;52593;42.648;23.332;2023-01-29T11:50:40;20.67;;;7.13;;
65831;SDS011;52593;42.648;23.332;2023-01-29T11:53:16;23.77;;;7.70;;
65831;SDS011;52593;42.648;23.332;2023-01-29T11:55:48;12.35;;;5.15;;
65831;SDS011;52593;42.648;23.332;2023-01-29T11:58:16;16.87;;;7.17;;
65831;SDS011;52593;42.648;23.332;2023-01-29T12:00:45;23.15;;;8.35;;
65831;SDS011;52593;42.648;23.332;2023-01-29T12:03:15;11.10;;;5.22;;
65831;SDS011;52593;42.648;23.332;2023-01-29T12:05:56;15.50;;;5.82;;
65831;SDS011;52593;42.648;23.332;2023-01-29T12:08:24;17.75;;;6.65;;
65831;SDS011;52593;42.648;23.332;2023-01-29T12:13:52;15.98;;;5.82;;
65831;SDS011;52593;42.648;23.332;2023-01-29T12:27:40;11.70;;;4.97;;
65831;SDS011;52593;42.648;23.332;2023-01-29T12:35:25;15.57;;;5.50;;
65831;SDS011;52593;42.648;23.332;2023-01-29T12:40:31;15.57;;;6.30;;
65831;SDS011;52593;42.648;23.332;2023-01-29T12:43:06;15.82;;;5.22;;
65831;SDS011;52593;42.648;23.332;2023-01-29T12:45:56;11.88;;;4.72;;
65831;SDS011;52593;42.648;23.332;2023-01-29T12:48:33;15.50;;;5.32;;
65831;SDS011;52593;42.648;23.332;2023-01-29T12:51:06;15.80;;;6.07;;
65831;SDS011;52593;42.648;23.332;2023-01-29T12:56:24;11.77;;;4.88;;
65831;SDS011;52593;42.648;23.332;2023-01-29T12:58:54;11.70;;;4.60;;
65831;SDS011;52593;42.648;23.332;2023-01-29T13:03:50;17.77;;;7.47;;
65831;SDS011;52593;42.648;23.332;2023-01-29T13:06:21;14.38;;;4.85;;
65831;SDS011;52593;42.648;23.332;2023-01-29T13:08:53;10.90;;;3.95;;
65831;SDS011;52593;42.648;23.332;2023-01-29T13:16:40;11.27;;;4.17;;
65831;SDS011;52593;42.648;23.332;2023-01-29T13:21:45;13.13;;;5.22;;
65831;SDS011;52593;42.648;23.332;2023-01-29T13:24:13;13.82;;;5.10;;
65831;SDS011;52593;42.648;23.332;2023-01-29T13:26:45;9.93;;;4.65;;
65831;SDS011;52593;42.648;23.332;2023-01-29T13:29:33;10.13;;;4.73;;
65831;SDS011;52593;42.648;23.332;2023-01-29T13:31:58;15.85;;;6.10;;
65831;SDS011;52593;42.648;23.332;2023-01-29T13:34:33;10.50;;;4.35;;
65831;SDS011;52593;42.648;23.332;2023-01-29T13:37:02;16.02;;;6.70;;
65831;SDS011;52593;42.648;23.332;2023-01-29T13:39:39;22.17;;;8.00;;
65831;SDS011;52593;42.648;23.332;2023-01-29T13:42:18;11.30;;;4.63;;
65831;SDS011;52593;42.648;23.332;2023-01-29T13:44:56;16.70;;;6.78;;
65831;SDS011;52593;42.648;23.332;2023-01-29T13:47:30;15.25;;;6.88;;
65831;SDS011;52593;42.648;23.332;2023-01-29T13:49:59;18.98;;;7.15;;
65831;SDS011;52593;42.648;23.332;2023-01-29T13:55:01;14.27;;;5.87;;
65831;SDS011;52593;42.648;23.332;2023-01-29T13:57:33;17.05;;;5.78;;
65831;SDS011;52593;42.648;23.332;2023-01-29T14:05:40;13.65;;;6.07;;
65831;SDS011;52593;42.648;23.332;2023-01-29T14:10:41;19.80;;;8.65;;
65831;SDS011;52593;42.648;23.332;2023-01-29T14:15:43;17.95;;;8.10;;
65831;SDS011;52593;42.648;23.332;2023-01-29T14:18:21;17.75;;;7.18;;
65831;SDS011;52593;42.648;23.332;2023-01-29T14:23:39;14.43;;;5.80;;
65831;SDS011;52593;42.648;23.332;2023-01-29T14:26:16;18.50;;;6.90;;
65831;SDS011;52593;42.648;23.332;2023-01-29T14:28:53;17.50;;;6.13;;
65831;SDS011;52593;42.648;23.332;2023-01-29T14:31:46;16.83;;;7.10;;
65831;SDS011;52593;42.648;23.332;2023-01-29T14:34:13;16.33;;;6.23;;
65831;SDS011;52593;42.648;23.332;2023-01-29T14:36:43;15.65;;;6.20;;
65831;SDS011;52593;42.648;23.332;2023-01-29T14:39:44;13.50;;;6.00;;
65831;SDS011;52593;42.648;23.332;2023-01-29T14:45:08;20.58;;;6.82;;
65831;SDS011;52593;42.648;23.332;2023-01-29T14:58:35;22.17;;;7.75;;
65831;SDS011;52593;42.648;23.332;2023-01-29T15:01:06;15.80;;;6.25;;
65831;SDS011;52593;42.648;23.332;2023-01-29T15:03:47;23.98;;;8.85;;
65831;SDS011;52593;42.648;23.332;2023-01-29T15:06:17;25.27;;;9.97;;
65831;SDS011;52593;42.648;23.332;2023-01-29T15:08:49;20.17;;;9.23;;
65831;SDS011;52593;42.648;23.332;2023-01-29T15:11:22;15.27;;;7.38;;
65831;SDS011;52593;42.648;23.332;2023-01-29T15:14:07;14.13;;;5.63;;
65831;SDS011;52593;42.648;23.332;2023-01-29T15:19:45;22.87;;;8.90;;
65831;SDS011;52593;42.648;23.332;2023-01-29T15:22:13;15.77;;;6.28;;
65831;SDS011;52593;42.648;23.332;2023-01-29T15:24:41;15.85;;;5.95;;
65831;SDS011;52593;42.648;23.332;2023-01-29T15:27:12;13.27;;;5.07;;
65831;SDS011;52593;42.648;23.332;2023-01-29T15:29:40;18.92;;;6.57;;
65831;SDS011;52593;42.648;23.332;2023-01-29T15:32:08;20.20;;;8.43;;
65831;SDS011;52593;42.648;23.332;2023-01-29T15:34:41;18.83;;;8.55;;
65831;SDS011;52593;42.648;23.332;2023-01-29T15:37:22;16.02;;;6.28;;
65831;SDS011;52593;42.648;23.332;2023-01-29T15:39:55;16.20;;;7.20;;
65831;SDS011;52593;42.648;23.332;2023-01-29T15:42:21;11.38;;;5.55;;
65831;SDS011;52593;42.648;23.332;2023-01-29T15:44:50;15.03;;;6.33;;
65831;SDS011;52593;42.648;23.332;2023-01-29T15:47:18;27.25;;;9.48;;
65831;SDS011;52593;42.648;23.332;2023-01-29T15:49:46;17.27;;;6.05;;
65831;SDS011;52593;42.648;23.332;2023-01-29T15:52:17;16.88;;;7.07;;
65831;SDS011;52593;42.648;23.332;2023-01-29T15:54:45;16.52;;;6.15;;
65831;SDS011;52593;42.648;23.332;2023-01-29T15:57:15;17.13;;;6.73;;
65831;SDS011;52593;42.648;23.332;2023-01-29T15:59:44;21.77;;;6.88;;
65831;SDS011;52593;42.648;23.332;2023-01-29T16:04:53;20.13;;;6.82;;
65831;SDS011;52593;42.648;23.332;2023-01-29T16:07:19;18.23;;;6.93;;
65831;SDS011;52593;42.648;23.332;2023-01-29T16:09:46;24.15;;;8.43;;
65831;SDS011;52593;42.648;23.332;2023-01-29T16:12:12;21.52;;;7.40;;
65831;SDS011;52593;42.648;23.332;2023-01-29T16:14:38;17.43;;;6.97;;
65831;SDS011;52593;42.648;23.332;2023-01-29T16:17:38;29.35;;;10.35;;
65831;SDS011;52593;42.648;23.332;2023-01-29T16:20:03;19.70;;;9.10;;
65831;SDS011;52593;42.648;23.332;2023-01-29T16:22:33;16.85;;;7.80;;
65831;SDS011;52593;42.648;23.332;2023-01-29T16:25:04;28.00;;;9.10;;
65831;SDS011;52593;42.648;23.332;2023-01-29T16:27:32;22.30;;;8.75;;
65831;SDS011;52593;42.648;23.332;2023-01-29T16:29:58;24.73;;;8.80;;
65831;SDS011;52593;42.648;23.332;2023-01-29T16:32:26;25.75;;;8.98;;
65831;SDS011;52593;42.648;23.332;2023-01-29T16:34:54;20.02;;;8.63;;
65831;SDS011;52593;42.648;23.332;2023-01-29T16:39:50;13.18;;;5.20;;
65831;SDS011;52593;42.648;23.332;2023-01-29T16:42:20;28.00;;;9.35;;
65831;SDS011;52593;42.648;23.332;2023-01-29T16:52:55;25.30;;;8.23;;
65831;SDS011;52593;42.648;23.332;2023-01-29T16:55:34;21.75;;;6.85;;
65831;SDS011;52593;42.648;23.332;2023-01-29T16:58:03;17.65;;;6.97;;
65831;SDS011;52593;42.648;23.332;2023-01-29T17:00:41;25.48;;;8.90;;
65831;SDS011;52593;42.648;23.332;2023-01-29T17:03:09;16.53;;;6.10;;
65831;SDS011;52593;42.648;23.332;2023-01-29T17:05:37;16.60;;;7.25;;
65831;SDS011;52593;42.648;23.332;2023-01-29T17:08:02;14.95;;;6.25;;
65831;SDS011;52593;42.648;23.332;2023-01-29T17:10:30;17.13;;;8.13;;
65831;SDS011;52593;42.648;23.332;2023-01-29T17:12:57;27.08;;;8.48;;
65831;SDS011;52593;42.648;23.332;2023-01-29T17:16:13;14.45;;;5.38;;
65831;SDS011;52593;42.648;23.332;2023-01-29T17:18:19;22.10;;;7.65;;
65831;SDS011;52593;42.648;23.332;2023-01-29T17:20:46;22.20;;;8.00;;
65831;SDS011;52593;42.648;23.332;2023-01-29T17:23:12;13.10;;;5.30;;
65831;SDS011;52593;42.648;23.332;2023-01-29T17:25:38;20.90;;;7.35;;
65831;SDS011;52593;42.648;23.332;2023-01-29T17:28:04;17.20;;;5.10;;
65831;SDS011;52593;42.648;23.332;2023-01-29T17:30:30;20.50;;;7.57;;
65831;SDS011;52593;42.648;23.332;2023-01-29T17:32:58;14.90;;;5.70;;
65831;SDS011;52593;42.648;23.332;2023-01-29T17:35:35;14.65;;;5.50;;
65831;SDS011;52593;42.648;23.332;2023-01-29T17:38:00;22.67;;;7.57;;
65831;SDS011;52593;42.648;23.332;2023-01-29T17:40:34;20.97;;;7.40;;